createdAt,value
2023-03-17T00:01:54.954Z,98249.94
2023-03-17T00:04:26.209Z,98250.66
2023-03-17T00:06:53.566Z,98236.66
2023-03-17T00:09:23.908Z,98244.53
2023-03-17T00:11:50.854Z,98253.25
2023-03-17T00:14:18.104Z,98250.59
2023-03-17T00:16:49.079Z,98235.81
2023-03-17T00:19:18.220Z,98237.66
2023-03-17T00:21:47.038Z,98228.81
2023-03-17T00:24:15.209Z,98220.94
2023-03-17T00:26:42.577Z,98223.66
2023-03-17T00:29:18.696Z,98214.97
2023-03-17T00:31:46.014Z,98213.19
2023-03-17T00:34:16.680Z,98216.69
2023-03-17T00:36:47.955Z,98213.22
2023-03-17T00:41:42.392Z,98220.25
2023-03-17T00:44:09.786Z,98205.38
2023-03-17T00:46:44.711Z,98217.50
2023-03-17T00:49:21.257Z,98219.22
2023-03-17T00:51:48.729Z,98219.25
2023-03-17T00:54:18.112Z,98208.03
2023-03-17T00:56:48.065Z,98198.38
2023-03-17T00:59:19.433Z,98194.88
2023-03-17T01:01:50.108Z,98192.25
2023-03-17T01:04:16.803Z,98188.81
2023-03-17T01:06:43.489Z,98180.06
2023-03-17T01:09:14.765Z,98174.81
2023-03-17T01:11:46.360Z,98173.84
2023-03-17T01:14:13.040Z,98159.09
2023-03-17T01:16:43.529Z,98157.38
2023-03-17T01:19:14.893Z,98153.88
2023-03-17T01:21:42.512Z,98157.31
2023-03-17T01:24:09.631Z,98155.59
2023-03-17T01:26:37.553Z,98153.78
2023-03-17T01:29:04.887Z,98153.63
2023-03-17T01:31:31.572Z,98151.13
2023-03-17T01:33:58.026Z,98155.56
2023-03-17T01:36:31.365Z,98157.19
2023-03-17T01:38:58.646Z,98152.03
2023-03-17T01:41:25.128Z,98159.84
2023-03-17T01:43:51.733Z,98148.41
2023-03-17T01:46:29.203Z,98146.69
2023-03-17T01:49:16.269Z,98149.31
2023-03-17T01:52:10.625Z,98137.09
2023-03-17T01:54:46.145Z,98139.81
2023-03-17T01:57:19.909Z,98130.34
2023-03-17T01:59:51.642Z,98126.00
2023-03-17T02:02:23.502Z,98130.28
2023-03-17T02:04:52.223Z,98134.63
2023-03-17T02:07:20.643Z,98136.41
2023-03-17T02:09:47.854Z,98129.34
2023-03-17T02:12:19.690Z,98130.19
2023-03-17T02:14:46.754Z,98122.47
2023-03-17T02:17:13.485Z,98122.41
2023-03-17T02:19:40.061Z,98126.94
2023-03-17T02:22:06.718Z,98143.50
2023-03-17T02:24:39.181Z,98133.16
2023-03-17T02:27:16.252Z,98134.84
2023-03-17T02:29:45.740Z,98136.56
2023-03-17T02:32:15.878Z,98138.28
2023-03-17T02:34:42.379Z,98134.69
2023-03-17T02:37:17.799Z,98145.25
2023-03-17T02:39:44.730Z,98145.13
2023-03-17T02:42:12.750Z,98150.34
2023-03-17T02:44:41.999Z,98137.19
2023-03-17T02:47:09.919Z,98132.00
2023-03-17T02:49:37.831Z,98125.03
2023-03-17T02:52:05.360Z,98117.94
2023-03-17T02:54:31.900Z,98114.50
2023-03-17T02:56:58.638Z,98113.56
2023-03-17T02:59:25.214Z,98111.94
2023-03-17T03:01:51.906Z,98124.25
2023-03-17T03:04:20.037Z,98124.19
2023-03-17T03:06:47.757Z,98130.50
2023-03-17T03:09:14.931Z,98128.78
2023-03-17T03:11:41.745Z,98127.97
2023-03-17T03:14:08.346Z,98117.53
2023-03-17T03:16:39.520Z,98106.88
2023-03-17T03:19:07.011Z,98105.03
2023-03-17T03:21:33.817Z,98109.75
2023-03-17T03:24:00.366Z,98110.66
2023-03-17T03:26:29.638Z,98107.34
2023-03-17T03:28:58.455Z,98113.56
2023-03-17T03:31:25.077Z,98117.94
2023-03-17T03:33:51.676Z,98117.09
2023-03-17T03:36:18.723Z,98119.66
2023-03-17T03:38:47.553Z,98116.91
2023-03-17T03:41:16.870Z,98107.38
2023-03-17T03:43:43.338Z,98110.94
2023-03-17T03:46:09.816Z,98116.00
2023-03-17T03:48:36.356Z,98124.88
2023-03-17T03:51:02.849Z,98125.56
2023-03-17T03:53:29.463Z,98120.22
2023-03-17T03:55:56.095Z,98107.25
2023-03-17T03:58:22.779Z,98101.84
2023-03-17T04:00:49.312Z,98095.41
2023-03-17T04:03:16.573Z,98096.38
2023-03-17T04:05:43.230Z,98099.88
2023-03-17T04:08:11.147Z,98099.00
2023-03-17T04:10:37.633Z,98108.72
2023-03-17T04:13:04.102Z,98105.28
2023-03-17T04:15:30.596Z,98106.41
2023-03-17T04:17:57.078Z,98104.75
2023-03-17T04:20:24.965Z,98110.28
2023-03-17T04:22:56.372Z,98110.28
2023-03-17T04:25:23.013Z,98115.47
2023-03-17T04:27:49.457Z,98118.00
2023-03-17T04:30:17.040Z,98104.00
2023-03-17T04:32:47.629Z,98108.44
2023-03-17T04:35:17.151Z,98105.84
2023-03-17T04:37:43.703Z,98105.84
2023-03-17T04:40:16.313Z,98108.47
2023-03-17T04:42:42.882Z,98101.66
2023-03-17T04:45:11.934Z,98093.81
2023-03-17T04:47:39.449Z,98104.31
2023-03-17T04:50:08.099Z,98098.34
2023-03-17T04:52:35.562Z,98101.13
2023-03-17T04:55:02.087Z,98098.59
2023-03-17T04:57:28.634Z,98108.16
2023-03-17T04:59:58.157Z,98103.78
2023-03-17T05:02:24.678Z,98096.91
2023-03-17T05:04:51.177Z,98097.78
2023-03-17T05:07:18.013Z,98092.66
2023-03-17T05:09:47.973Z,98087.44
2023-03-17T05:12:14.915Z,98077.06
2023-03-17T05:14:41.565Z,98077.03
2023-03-17T05:17:12.740Z,98071.81
2023-03-17T05:19:39.268Z,98078.06
2023-03-17T05:22:05.848Z,98080.66
2023-03-17T05:24:32.700Z,98073.72
2023-03-17T05:26:59.260Z,98075.44
2023-03-17T05:29:27.852Z,98078.91
2023-03-17T05:31:56.821Z,98065.06
2023-03-17T05:34:23.248Z,98055.47
2023-03-17T05:36:53.246Z,98049.34
2023-03-17T05:39:19.709Z,98031.59
2023-03-17T05:41:47.139Z,98022.50
2023-03-17T05:44:14.108Z,98016.06
2023-03-17T05:46:47.743Z,98013.31
2023-03-17T05:49:14.297Z,98009.75
2023-03-17T05:51:41.927Z,98004.59
2023-03-17T05:54:08.780Z,97998.47
2023-03-17T05:56:35.376Z,97999.28
2023-03-17T05:59:02.365Z,98001.78
2023-03-17T06:01:29.597Z,98001.66
2023-03-17T06:03:56.141Z,97993.25
2023-03-17T06:06:26.241Z,97993.91
2023-03-17T06:08:53.020Z,97999.41
2023-03-17T06:11:21.538Z,98019.28
2023-03-17T06:13:48.089Z,98028.28
2023-03-17T06:16:14.812Z,98035.34
2023-03-17T06:18:46.176Z,98037.13
2023-03-17T06:21:13.711Z,98038.06
2023-03-17T06:23:40.306Z,98042.41
2023-03-17T06:26:07.154Z,98053.13
2023-03-17T06:28:33.625Z,98054.06
2023-03-17T06:31:00.197Z,98048.94
2023-03-17T06:33:27.212Z,98055.81
2023-03-17T06:35:53.948Z,98052.94
2023-03-17T06:38:20.849Z,98042.13
2023-03-17T06:40:49.500Z,98044.88
2023-03-17T06:43:17.400Z,98045.88
2023-03-17T06:45:43.901Z,98042.50
2023-03-17T06:48:11.763Z,98045.34
2023-03-17T06:50:38.228Z,98042.25
2023-03-17T06:53:04.805Z,98036.84
2023-03-17T06:55:32.016Z,98050.72
2023-03-17T06:57:59.039Z,98059.44
2023-03-17T07:00:26.014Z,98055.25
2023-03-17T07:02:52.690Z,98056.88
2023-03-17T07:05:19.230Z,98045.06
2023-03-17T07:07:46.049Z,98062.00
2023-03-17T07:10:13.825Z,98049.00
2023-03-17T07:12:40.249Z,98043.84
2023-03-17T07:15:07.159Z,98036.19
2023-03-17T07:17:33.699Z,98040.28
2023-03-17T07:20:00.226Z,98031.22
2023-03-17T07:22:27.378Z,98029.72
2023-03-17T07:24:53.809Z,98025.66
2023-03-17T07:27:23.042Z,98026.53
2023-03-17T07:29:49.710Z,98030.75
2023-03-17T07:32:16.301Z,98022.88
2023-03-17T07:34:43.328Z,98021.84
2023-03-17T07:37:10.444Z,98022.97
2023-03-17T07:39:36.958Z,98024.72
2023-03-17T07:42:03.713Z,98028.22
2023-03-17T07:44:33.275Z,98027.75
2023-03-17T07:46:59.755Z,98042.47
2023-03-17T07:49:40.324Z,98036.22
2023-03-17T07:52:08.514Z,98040.38
2023-03-17T07:54:36.280Z,98026.91
2023-03-17T07:57:03.412Z,98028.09
2023-03-17T07:59:30.083Z,98030.06
2023-03-17T08:02:00.345Z,98034.09
2023-03-17T08:04:33.256Z,98022.44
2023-03-17T08:06:59.870Z,98023.56
2023-03-17T08:09:27.092Z,98028.78
2023-03-17T08:11:53.572Z,98030.03
2023-03-17T08:14:24.793Z,98033.66
2023-03-17T08:16:51.359Z,98032.19
2023-03-17T08:19:18.059Z,98036.63
2023-03-17T08:21:44.639Z,98013.25
2023-03-17T08:24:11.160Z,98017.25
2023-03-17T08:26:37.742Z,98022.09
2023-03-17T08:29:07.493Z,98016.78
2023-03-17T08:31:34.234Z,98018.03
2023-03-17T08:34:02.648Z,98017.44
2023-03-17T08:36:29.834Z,98014.53
2023-03-17T08:38:56.306Z,98019.28
2023-03-17T08:41:29.281Z,98017.56
2023-03-17T08:43:56.263Z,98014.63
2023-03-17T08:46:28.884Z,98005.81
2023-03-17T08:48:56.813Z,98010.25
2023-03-17T08:51:26.091Z,97999.59
2023-03-17T08:53:54.507Z,98008.84
2023-03-17T08:56:21.766Z,98007.59
2023-03-17T08:58:49.385Z,98006.84
2023-03-17T09:01:17.001Z,98009.69
2023-03-17T09:03:49.540Z,98005.16
2023-03-17T09:06:16.394Z,98006.75
2023-03-17T09:08:48.117Z,98004.56
2023-03-17T09:11:17.745Z,98007.94
2023-03-17T09:13:55.573Z,97994.97
2023-03-17T09:16:23.974Z,98001.41
2023-03-17T09:18:51.074Z,98007.88
2023-03-17T09:21:17.807Z,97995.81
2023-03-17T09:24:01.694Z,97994.72
2023-03-17T09:26:28.939Z,97987.06
2023-03-17T09:28:55.548Z,97986.78
2023-03-17T09:31:22.208Z,97990.91
2023-03-17T09:33:52.607Z,98001.34
2023-03-17T09:36:20.410Z,97993.59
2023-03-17T09:38:47.172Z,97996.94
2023-03-17T09:41:18.392Z,97995.53
2023-03-17T09:44:06.814Z,97992.31
2023-03-17T09:46:40.957Z,97997.81
2023-03-17T09:49:11.922Z,98002.09
2023-03-17T09:51:39.067Z,97993.63
2023-03-17T09:54:15.372Z,97987.75
2023-03-17T09:56:48.264Z,97977.38
2023-03-17T09:59:30.071Z,97972.63
2023-03-17T10:01:57.164Z,97976.13
2023-03-17T10:04:33.141Z,97971.75
2023-03-17T10:07:04.983Z,97976.31
2023-03-17T10:09:41.876Z,97976.50
2023-03-17T10:12:38.721Z,97981.00
2023-03-17T10:15:27.895Z,97972.06
2023-03-17T10:17:56.745Z,97974.25
2023-03-17T10:20:36.022Z,97980.13
2023-03-17T10:23:09.849Z,97974.44
2023-03-17T10:25:42.344Z,97970.06
2023-03-17T10:28:26.193Z,97965.78
2023-03-17T10:31:08.512Z,97970.63
2023-03-17T10:33:34.997Z,97977.69
2023-03-17T10:36:09.591Z,97977.50
2023-03-17T10:38:39.080Z,97962.25
2023-03-17T10:41:14.042Z,97954.88
2023-03-17T10:43:48.390Z,97954.13
2023-03-17T10:46:31.094Z,97957.09
2023-03-17T10:49:07.018Z,97958.00
2023-03-17T10:51:38.271Z,97955.75
2023-03-17T10:54:20.396Z,97946.25
2023-03-17T10:56:50.216Z,97941.50
2023-03-17T10:59:25.781Z,97938.91
2023-03-17T11:01:54.373Z,97945.59
2023-03-17T11:04:34.076Z,97944.91
2023-03-17T11:07:12.478Z,97938.94
2023-03-17T11:09:38.928Z,97933.53
2023-03-17T11:12:21.285Z,97943.50
2023-03-17T11:14:49.243Z,97930.00
2023-03-17T11:17:40.230Z,97931.41
2023-03-17T11:20:12.856Z,97932.09
2023-03-17T11:22:52.133Z,97923.91
2023-03-17T11:25:20.592Z,97928.38
2023-03-17T11:28:02.929Z,97921.81
2023-03-17T11:30:30.449Z,97919.16
2023-03-17T11:33:00.925Z,97920.03
2023-03-17T11:35:43.503Z,97920.13
2023-03-17T11:38:28.559Z,97912.78
2023-03-17T11:41:09.602Z,97915.69
2023-03-17T11:44:18.446Z,97918.94
2023-03-17T11:47:23.350Z,97912.66
2023-03-17T11:50:07.585Z,97910.53
2023-03-17T11:53:06.738Z,97910.97
2023-03-17T11:55:48.419Z,97903.47
2023-03-17T11:58:37.051Z,97914.72
2023-03-17T12:01:09.058Z,97901.91
2023-03-17T12:03:51.452Z,97906.47
2023-03-17T12:06:31.788Z,97908.25
2023-03-17T12:09:07.789Z,97904.78
2023-03-17T12:11:40.577Z,97897.63
2023-03-17T12:14:23.194Z,97907.34
2023-03-17T12:16:57.102Z,97894.56
2023-03-17T12:19:31.443Z,97894.25
2023-03-17T12:22:06.678Z,97895.28
2023-03-17T12:24:43.785Z,97885.84
2023-03-17T12:27:29.927Z,97895.44
2023-03-17T12:30:02.598Z,97882.19
2023-03-17T12:32:39.708Z,97884.19
2023-03-17T12:35:26.315Z,97885.44
2023-03-17T12:37:53.584Z,97878.06
2023-03-17T12:40:26.273Z,97881.66
2023-03-17T12:43:02.135Z,97879.94
2023-03-17T12:46:03.049Z,97881.69
2023-03-17T12:49:00.363Z,97882.97
2023-03-17T12:51:58.721Z,97880.72
2023-03-17T12:54:30.633Z,97888.84
2023-03-17T12:57:17.503Z,97887.13
2023-03-17T12:59:46.650Z,97881.81
2023-03-17T13:02:38.167Z,97880.28
2023-03-17T13:05:15.278Z,97873.13
2023-03-17T13:08:01.669Z,97866.84
2023-03-17T13:10:42.116Z,97862.19
2023-03-17T13:13:36.642Z,97866.78
2023-03-17T13:16:34.935Z,97868.22
2023-03-17T13:19:18.690Z,97872.28
2023-03-17T13:21:50.582Z,97868.13
2023-03-17T13:24:17.100Z,97865.03
2023-03-17T13:26:47.970Z,97863.34
2023-03-17T13:29:33.530Z,97861.03
2023-03-17T13:32:24.848Z,97851.19
2023-03-17T13:35:02.302Z,97847.66
2023-03-17T13:37:34.658Z,97846.59
2023-03-17T13:40:31.705Z,97853.63
2023-03-17T13:43:26.418Z,97852.34
2023-03-17T13:45:56.066Z,97839.22
2023-03-17T13:48:27.013Z,97846.16
2023-03-17T13:51:02.005Z,97843.81
2023-03-17T13:53:51.501Z,97840.28
2023-03-17T13:56:36.202Z,97838.69
2023-03-17T13:59:02.912Z,97837.41
2023-03-17T14:01:36.273Z,97840.56
2023-03-17T14:04:05.489Z,97834.63
2023-03-17T14:06:37.368Z,97833.28
2023-03-17T14:09:23.567Z,97820.16
2023-03-17T14:11:54.706Z,97826.53
2023-03-17T14:14:36.760Z,97826.38
2023-03-17T14:17:24.587Z,97816.50
2023-03-17T14:20:09.454Z,97820.84
2023-03-17T14:22:48.567Z,97821.59
2023-03-17T14:25:17.864Z,97821.38
2023-03-17T14:27:51.077Z,97822.69
2023-03-17T14:30:23.945Z,97813.31
2023-03-17T14:33:06.572Z,97818.25
2023-03-17T14:35:37.477Z,97812.28
2023-03-17T14:38:17.415Z,97812.22
2023-03-17T14:40:43.932Z,97806.00
2023-03-17T14:43:11.089Z,97794.88
2023-03-17T14:45:58.836Z,97794.09
2023-03-17T14:48:32.511Z,97792.34
2023-03-17T14:51:05.741Z,97794.31
2023-03-17T14:53:40.657Z,97793.19
2023-03-17T14:56:10.735Z,97796.28
2023-03-17T14:58:42.096Z,97789.69
2023-03-17T15:01:16.394Z,97778.59
2023-03-17T15:03:57.616Z,97777.06
2023-03-17T15:06:27.520Z,97771.09
2023-03-17T15:09:11.927Z,97776.91
2023-03-17T15:11:43.499Z,97762.56
2023-03-17T15:14:21.031Z,97767.28
2023-03-17T15:16:50.676Z,97774.13
2023-03-17T15:19:35.015Z,97772.31
2023-03-17T15:22:20.927Z,97771.47
2023-03-17T15:25:01.486Z,97768.53
2023-03-17T15:27:29.180Z,97771.34
2023-03-17T15:29:55.709Z,97782.34
2023-03-17T15:32:23.858Z,97784.47
2023-03-17T15:34:54.887Z,97779.06
2023-03-17T15:37:28.590Z,97790.84
2023-03-17T15:39:55.925Z,97776.59
2023-03-17T15:42:33.763Z,97784.94
2023-03-17T15:45:01.565Z,97769.13
2023-03-17T15:47:31.155Z,97774.13
2023-03-17T15:50:01.920Z,97779.53
2023-03-17T15:52:32.810Z,97772.63
2023-03-17T15:54:59.919Z,97769.97
2023-03-17T15:57:27.359Z,97762.41
2023-03-17T15:59:53.972Z,97770.81
2023-03-17T16:02:35.646Z,97775.00
2023-03-17T16:05:12.045Z,97771.25
2023-03-17T16:07:38.660Z,97761.38
2023-03-17T16:10:37.402Z,97753.06
2023-03-17T16:13:03.963Z,97756.63
2023-03-17T16:15:38.511Z,97753.16
2023-03-17T16:18:10.395Z,97755.41
2023-03-17T16:20:40.223Z,97752.38
2023-03-17T16:23:16.963Z,97747.59
2023-03-17T16:25:45.151Z,97759.88
2023-03-17T16:28:28.911Z,97769.03
2023-03-17T16:30:57.710Z,97767.34
2023-03-17T16:33:27.724Z,97767.69
2023-03-17T16:35:55.883Z,97764.59
2023-03-17T16:38:28.581Z,97768.25
2023-03-17T16:40:59.775Z,97771.06
2023-03-17T16:43:31.575Z,97767.81
2023-03-17T16:46:00.019Z,97768.47
2023-03-17T16:48:29.766Z,97763.72
2023-03-17T16:50:57.528Z,97767.28
2023-03-17T16:53:24.890Z,97766.25
2023-03-17T16:55:53.365Z,97765.75
2023-03-17T16:58:23.090Z,97767.97
2023-03-17T17:00:55.293Z,97765.31
2023-03-17T17:03:21.775Z,97765.97
2023-03-17T17:05:48.309Z,97776.88
2023-03-17T17:08:14.868Z,97767.06
2023-03-17T17:10:41.385Z,97761.31
2023-03-17T17:13:10.048Z,97772.06
2023-03-17T17:15:37.731Z,97776.34
2023-03-17T17:18:07.741Z,97774.53
2023-03-17T17:20:39.321Z,97782.97
2023-03-17T17:23:13.705Z,97775.28
2023-03-17T17:25:41.361Z,97775.28
2023-03-17T17:28:08.322Z,97770.22
2023-03-17T17:30:34.895Z,97779.75
2023-03-17T17:33:02.252Z,97783.72
2023-03-17T17:35:32.543Z,97782.81
2023-03-17T17:38:00.698Z,97789.72
2023-03-17T17:40:27.338Z,97788.22
2023-03-17T17:42:54.459Z,97788.84
2023-03-17T17:45:21.554Z,97788.13
2023-03-17T17:47:48.776Z,97790.44
2023-03-17T17:50:27.638Z,97786.13
2023-03-17T17:52:54.124Z,97788.00
2023-03-17T17:55:20.789Z,97788.47
2023-03-17T17:57:47.276Z,97787.56
2023-03-17T18:00:18.895Z,97777.34
2023-03-17T18:02:45.919Z,97779.34
2023-03-17T18:05:13.317Z,97781.81
2023-03-17T18:07:40.489Z,97791.59
2023-03-17T18:10:07.929Z,97788.28
2023-03-17T18:12:34.495Z,97789.88
2023-03-17T18:15:01.044Z,97784.53
2023-03-17T18:17:27.549Z,97786.81
2023-03-17T18:19:54.124Z,97788.69
2023-03-17T18:22:21.721Z,97790.88
2023-03-17T18:24:49.236Z,97788.03
2023-03-17T18:27:16.937Z,97784.47
2023-03-17T18:29:43.810Z,97786.03
2023-03-17T18:32:12.230Z,97774.19
2023-03-17T18:34:43.580Z,97773.06
2023-03-17T18:37:12.676Z,97771.47
2023-03-17T18:39:41.121Z,97777.88
2023-03-17T18:42:08.899Z,97767.97
2023-03-17T18:44:35.714Z,97774.03
2023-03-17T18:47:02.607Z,97778.84
2023-03-17T18:49:29.329Z,97776.41
2023-03-17T18:51:56.912Z,97772.31
2023-03-17T18:54:24.067Z,97777.31
2023-03-17T18:56:51.539Z,97767.81
2023-03-17T18:59:18.287Z,97758.34
2023-03-17T19:01:44.902Z,97749.16
2023-03-17T19:04:14.817Z,97757.16
2023-03-17T19:06:42.696Z,97764.47
2023-03-17T19:09:13.078Z,97760.50
2023-03-17T19:11:40.114Z,97759.69
2023-03-17T19:14:08.724Z,97753.78
2023-03-17T19:16:35.838Z,97760.78
2023-03-17T19:19:03.244Z,97764.16
2023-03-17T19:21:34.835Z,97774.22
2023-03-17T19:24:02.148Z,97776.19
2023-03-17T19:26:30.400Z,97769.09
2023-03-17T19:28:57.384Z,97776.78
2023-03-17T19:31:24.963Z,97769.66
2023-03-17T19:33:52.317Z,97778.78
2023-03-17T19:36:33.477Z,97777.84
2023-03-17T19:39:00.578Z,97776.06
2023-03-17T19:41:27.336Z,97772.00
2023-03-17T19:43:53.939Z,97773.06
2023-03-17T19:46:20.670Z,97765.38
2023-03-17T19:48:55.062Z,97773.09
2023-03-17T19:51:21.763Z,97777.50
2023-03-17T19:53:48.180Z,97781.97
2023-03-17T19:56:15.336Z,97776.00
2023-03-17T19:58:41.768Z,97766.94
2023-03-17T20:01:08.513Z,97763.50
2023-03-17T20:03:36.186Z,97772.50
2023-03-17T20:06:06.067Z,97773.13
2023-03-17T20:08:33.571Z,97775.22
2023-03-17T20:11:00.183Z,97767.50
2023-03-17T20:13:26.659Z,97770.84
2023-03-17T20:15:53.102Z,97777.41
2023-03-17T20:18:20.108Z,97771.44
2023-03-17T20:20:53.327Z,97776.78
2023-03-17T20:23:21.613Z,97769.94
2023-03-17T20:25:52.321Z,97772.72
2023-03-17T20:28:24.037Z,97774.34
2023-03-17T20:30:50.521Z,97771.94
2023-03-17T20:33:17.299Z,97775.00
2023-03-17T20:35:47.031Z,97779.97
2023-03-17T20:38:14.798Z,97775.00
2023-03-17T20:40:42.007Z,97775.00
2023-03-17T20:43:09.462Z,97776.72
2023-03-17T20:45:37.051Z,97781.06
2023-03-17T20:48:12.038Z,97777.34
2023-03-17T20:50:39.384Z,97779.44
2023-03-17T20:53:06.060Z,97780.91
2023-03-17T20:55:32.620Z,97780.13
2023-03-17T20:58:01.774Z,97774.78
2023-03-17T21:00:30.159Z,97767.72
2023-03-17T21:02:57.213Z,97764.28
2023-03-17T21:05:26.076Z,97767.19
2023-03-17T21:07:52.756Z,97761.91
2023-03-17T21:10:19.797Z,97757.94
2023-03-17T21:12:46.557Z,97753.66
2023-03-17T21:15:13.989Z,97759.78
2023-03-17T21:17:42.328Z,97753.47
2023-03-17T21:20:11.704Z,97763.09
2023-03-17T21:22:41.977Z,97761.81
2023-03-17T21:25:12.769Z,97765.06
2023-03-17T21:27:40.160Z,97771.59
2023-03-17T21:30:13.148Z,97770.03
2023-03-17T21:32:40.756Z,97767.44
2023-03-17T21:35:07.935Z,97771.16
2023-03-17T21:37:35.466Z,97763.91
2023-03-17T21:40:08.182Z,97768.25
2023-03-17T21:42:34.778Z,97760.47
2023-03-17T21:45:01.675Z,97765.63
2023-03-17T21:47:30.002Z,97766.47
2023-03-17T21:49:57.914Z,97763.91
2023-03-17T21:52:25.119Z,97764.53
2023-03-17T21:54:53.120Z,97762.69
2023-03-17T21:57:21.912Z,97767.19
2023-03-17T21:59:48.819Z,97763.91
2023-03-17T22:02:18.833Z,97769.31
2023-03-17T22:04:46.896Z,97767.88
2023-03-17T22:07:13.771Z,97753.13
2023-03-17T22:09:40.403Z,97754.03
2023-03-17T22:12:07.206Z,97758.59
2023-03-17T22:14:35.525Z,97759.31
2023-03-17T22:17:07.891Z,97758.81
2023-03-17T22:19:34.475Z,97756.94
2023-03-17T22:22:01.949Z,97759.94
2023-03-17T22:24:28.406Z,97752.78
2023-03-17T22:26:55.935Z,97760.94
2023-03-17T22:29:22.436Z,97760.13
2023-03-17T22:31:51.169Z,97758.28
2023-03-17T22:34:18.172Z,97756.44
2023-03-17T22:36:44.695Z,97756.09
2023-03-17T22:39:11.781Z,97760.53
2023-03-17T22:41:39.184Z,97763.09
2023-03-17T22:44:11.834Z,97762.22
2023-03-17T22:46:40.971Z,97761.19
2023-03-17T22:49:07.882Z,97771.22
2023-03-17T22:51:34.891Z,97769.25
2023-03-17T22:54:02.342Z,97759.81
2023-03-17T22:56:29.229Z,97769.34
2023-03-17T22:58:56.629Z,97766.28
2023-03-17T23:01:25.721Z,97768.97
2023-03-17T23:03:53.136Z,97775.97
2023-03-17T23:06:20.741Z,97769.06
2023-03-17T23:08:47.733Z,97777.28
2023-03-17T23:11:21.221Z,97777.31
2023-03-17T23:13:48.259Z,97777.69
2023-03-17T23:16:15.646Z,97784.25
2023-03-17T23:18:46.091Z,97783.47
2023-03-17T23:21:22.306Z,97799.41
2023-03-17T23:23:49.573Z,97804.56
2023-03-17T23:26:16.825Z,97798.47
2023-03-17T23:28:44.915Z,97798.63
2023-03-17T23:31:11.401Z,97794.81
2023-03-17T23:33:41.645Z,97796.66
2023-03-17T23:36:09.170Z,97800.34
2023-03-17T23:38:36.578Z,97803.75
2023-03-17T23:41:03.608Z,97804.81
2023-03-17T23:43:30.071Z,97810.19
2023-03-17T23:45:58.857Z,97801.22
2023-03-17T23:48:25.309Z,97797.94
2023-03-17T23:50:53.176Z,97804.13
2023-03-17T23:53:21.716Z,97800.78
2023-03-17T23:55:48.187Z,97805.53
2023-03-17T23:58:15.596Z,97803.44
